Terminal Aerodrome Forecast
Issued by NWS

Home | Current Version | Previous Version | Text Only | Print | Product List | Glossary On
Versions: 1 2 3 4 5 6 7 8 9 10 11 12
000
FTUS44 KBMX 161120
TAFTOI
TAF
KTOI 161120Z 1612/1712 VRB03KT P6SM SCT150 BKN250
     FM161900 14005KT P6SM BKN250
     FM170000 00000KT P6SM SKC
     FM170900 10006KT P6SM OVC250=

USA.gov is the U.S. government's official web portal to all federal, state and local government web resources and services.